sensor_id;sensor_type;location;lat;lon;timestamp;temperature;humidity
54192;DHT22;40101;53.002;6.488;2023-09-19T00:02:12;14.10;99.90
54192;DHT22;40101;53.002;6.488;2023-09-19T00:04:38;14.10;99.90
54192;DHT22;40101;53.002;6.488;2023-09-19T00:07:05;14.00;99.90
54192;DHT22;40101;53.002;6.488;2023-09-19T00:09:31;14.10;99.90
54192;DHT22;40101;53.002;6.488;2023-09-19T00:12:06;14.00;99.90
54192;DHT22;40101;53.002;6.488;2023-09-19T00:14:32;13.90;99.90
54192;DHT22;40101;53.002;6.488;2023-09-19T00:17:02;13.90;99.90
54192;DHT22;40101;53.002;6.488;2023-09-19T00:19:31;13.80;99.90
54192;DHT22;40101;53.002;6.488;2023-09-19T00:21:58;13.80;99.90
54192;DHT22;40101;53.002;6.488;2023-09-19T00:24:23;13.80;99.90
54192;DHT22;40101;53.002;6.488;2023-09-19T00:26:49;13.70;99.90
54192;DHT22;40101;53.002;6.488;2023-09-19T00:29:15;13.70;99.90
54192;DHT22;40101;53.002;6.488;2023-09-19T00:31:45;13.70;99.90
54192;DHT22;40101;53.002;6.488;2023-09-19T00:34:10;13.60;99.90
54192;DHT22;40101;53.002;6.488;2023-09-19T00:36:37;13.60;99.90
54192;DHT22;40101;53.002;6.488;2023-09-19T00:39:05;13.60;99.90
54192;DHT22;40101;53.002;6.488;2023-09-19T00:41:32;13.60;99.90
54192;DHT22;40101;53.002;6.488;2023-09-19T00:43:57;13.50;99.90
54192;DHT22;40101;53.002;6.488;2023-09-19T00:46:25;13.50;99.90
54192;DHT22;40101;53.002;6.488;2023-09-19T00:48:51;13.50;99.90
54192;DHT22;40101;53.002;6.488;2023-09-19T00:51:17;13.50;99.90
54192;DHT22;40101;53.002;6.488;2023-09-19T00:53:46;13.50;99.90
54192;DHT22;40101;53.002;6.488;2023-09-19T00:56:13;13.50;99.90
54192;DHT22;40101;53.002;6.488;2023-09-19T00:58:39;13.50;99.90
54192;DHT22;40101;53.002;6.488;2023-09-19T01:01:05;13.50;99.90
54192;DHT22;40101;53.002;6.488;2023-09-19T01:03:33;13.50;99.90
54192;DHT22;40101;53.002;6.488;2023-09-19T01:05:59;13.40;99.90
54192;DHT22;40101;53.002;6.488;2023-09-19T01:08:26;13.40;99.90
54192;DHT22;40101;53.002;6.488;2023-09-19T01:11:28;13.50;99.90
54192;DHT22;40101;53.002;6.488;2023-09-19T01:17:24;13.30;99.90
54192;DHT22;40101;53.002;6.488;2023-09-19T01:30:47;13.20;99.90
54192;DHT22;40101;53.002;6.488;2023-09-19T01:33:13;13.10;99.90
54192;DHT22;40101;53.002;6.488;2023-09-19T01:35:40;13.10;99.90
54192;DHT22;40101;53.002;6.488;2023-09-19T01:38:06;13.20;99.90
54192;DHT22;40101;53.002;6.488;2023-09-19T01:40:57;13.00;99.90
54192;DHT22;40101;53.002;6.488;2023-09-19T01:43:38;13.00;99.90
54192;DHT22;40101;53.002;6.488;2023-09-19T01:46:14;12.90;99.90
54192;DHT22;40101;53.002;6.488;2023-09-19T01:48:54;12.90;99.90
54192;DHT22;40101;53.002;6.488;2023-09-19T01:52:31;12.80;99.90
54192;DHT22;40101;53.002;6.488;2023-09-19T01:54:41;12.80;99.90
54192;DHT22;40101;53.002;6.488;2023-09-19T01:59:43;12.80;99.90
54192;DHT22;40101;53.002;6.488;2023-09-19T02:02:12;12.80;99.90
54192;DHT22;40101;53.002;6.488;2023-09-19T02:04:38;12.80;99.90
54192;DHT22;40101;53.002;6.488;2023-09-19T02:07:04;12.70;99.90
54192;DHT22;40101;53.002;6.488;2023-09-19T02:09:31;12.70;99.90
54192;DHT22;40101;53.002;6.488;2023-09-19T02:12:01;12.70;99.90
54192;DHT22;40101;53.002;6.488;2023-09-19T02:14:27;12.60;99.90
54192;DHT22;40101;53.002;6.488;2023-09-19T02:16:53;12.60;99.90
54192;DHT22;40101;53.002;6.488;2023-09-19T02:19:19;12.60;99.90
54192;DHT22;40101;53.002;6.488;2023-09-19T02:21:46;12.60;99.90
54192;DHT22;40101;53.002;6.488;2023-09-19T02:24:14;12.60;99.90
54192;DHT22;40101;53.002;6.488;2023-09-19T02:26:40;12.60;99.90
54192;DHT22;40101;53.002;6.488;2023-09-19T02:29:06;12.50;99.90
54192;DHT22;40101;53.002;6.488;2023-09-19T02:31:32;12.50;99.90
54192;DHT22;40101;53.002;6.488;2023-09-19T02:33:57;12.60;99.90
54192;DHT22;40101;53.002;6.488;2023-09-19T02:36:23;12.60;99.90
54192;DHT22;40101;53.002;6.488;2023-09-19T02:38:49;12.60;99.90
54192;DHT22;40101;53.002;6.488;2023-09-19T02:41:15;12.60;99.90
54192;DHT22;40101;53.002;6.488;2023-09-19T02:43:40;12.60;99.90
54192;DHT22;40101;53.002;6.488;2023-09-19T02:46:08;12.60;99.90
54192;DHT22;40101;53.002;6.488;2023-09-19T02:48:34;12.60;99.90
54192;DHT22;40101;53.002;6.488;2023-09-19T02:51:01;12.60;99.90
54192;DHT22;40101;53.002;6.488;2023-09-19T02:53:27;12.60;99.90
54192;DHT22;40101;53.002;6.488;2023-09-19T02:55:52;12.60;99.90
54192;DHT22;40101;53.002;6.488;2023-09-19T02:58:18;12.60;99.90
54192;DHT22;40101;53.002;6.488;2023-09-19T03:00:44;12.60;99.90
54192;DHT22;40101;53.002;6.488;2023-09-19T03:03:15;12.60;99.90
54192;DHT22;40101;53.002;6.488;2023-09-19T03:05:41;12.60;99.90
54192;DHT22;40101;53.002;6.488;2023-09-19T03:08:13;12.60;99.90
54192;DHT22;40101;53.002;6.488;2023-09-19T03:10:40;12.70;99.90
54192;DHT22;40101;53.002;6.488;2023-09-19T03:13:06;12.70;99.90
54192;DHT22;40101;53.002;6.488;2023-09-19T03:15:35;12.80;99.90
54192;DHT22;40101;53.002;6.488;2023-09-19T03:18:04;12.80;99.90
54192;DHT22;40101;53.002;6.488;2023-09-19T03:20:30;12.80;99.90
54192;DHT22;40101;53.002;6.488;2023-09-19T03:22:55;12.90;99.90
54192;DHT22;40101;53.002;6.488;2023-09-19T03:25:22;12.90;99.90
54192;DHT22;40101;53.002;6.488;2023-09-19T03:27:48;12.90;99.90
54192;DHT22;40101;53.002;6.488;2023-09-19T03:30:14;12.90;99.90
54192;DHT22;40101;53.002;6.488;2023-09-19T03:32:47;12.90;99.90
54192;DHT22;40101;53.002;6.488;2023-09-19T03:35:15;13.00;99.90
54192;DHT22;40101;53.002;6.488;2023-09-19T03:37:42;13.00;99.90
54192;DHT22;40101;53.002;6.488;2023-09-19T03:40:08;13.00;99.90
54192;DHT22;40101;53.002;6.488;2023-09-19T03:42:38;13.00;99.90
54192;DHT22;40101;53.002;6.488;2023-09-19T03:45:05;13.00;99.90
54192;DHT22;40101;53.002;6.488;2023-09-19T03:47:31;12.90;99.90
54192;DHT22;40101;53.002;6.488;2023-09-19T03:49:57;12.90;99.90
54192;DHT22;40101;53.002;6.488;2023-09-19T03:52:22;12.90;99.90
54192;DHT22;40101;53.002;6.488;2023-09-19T03:54:48;12.90;99.90
54192;DHT22;40101;53.002;6.488;2023-09-19T03:57:14;12.90;99.90
54192;DHT22;40101;53.002;6.488;2023-09-19T03:59:42;12.90;99.90
54192;DHT22;40101;53.002;6.488;2023-09-19T04:02:11;12.80;99.90
54192;DHT22;40101;53.002;6.488;2023-09-19T04:04:48;12.80;99.90
54192;DHT22;40101;53.002;6.488;2023-09-19T04:07:13;12.90;99.90
54192;DHT22;40101;53.002;6.488;2023-09-19T04:09:39;12.90;99.90
54192;DHT22;40101;53.002;6.488;2023-09-19T04:12:05;13.00;99.90
54192;DHT22;40101;53.002;6.488;2023-09-19T04:14:31;13.00;99.90
54192;DHT22;40101;53.002;6.488;2023-09-19T04:16:56;13.00;99.90
54192;DHT22;40101;53.002;6.488;2023-09-19T04:19:22;13.00;99.90
54192;DHT22;40101;53.002;6.488;2023-09-19T04:21:47;13.00;99.90
54192;DHT22;40101;53.002;6.488;2023-09-19T04:24:13;13.10;99.90
54192;DHT22;40101;53.002;6.488;2023-09-19T04:26:39;13.10;99.90
54192;DHT22;40101;53.002;6.488;2023-09-19T04:29:04;13.10;99.90
54192;DHT22;40101;53.002;6.488;2023-09-19T04:31:31;13.10;99.90
54192;DHT22;40101;53.002;6.488;2023-09-19T04:33:57;13.10;99.90
54192;DHT22;40101;53.002;6.488;2023-09-19T04:36:24;13.10;99.90
54192;DHT22;40101;53.002;6.488;2023-09-19T04:38:50;13.10;99.90
54192;DHT22;40101;53.002;6.488;2023-09-19T04:41:15;13.10;99.90
54192;DHT22;40101;53.002;6.488;2023-09-19T04:43:41;13.10;99.90
54192;DHT22;40101;53.002;6.488;2023-09-19T04:46:07;13.10;99.90
54192;DHT22;40101;53.002;6.488;2023-09-19T04:48:32;13.10;99.90
54192;DHT22;40101;53.002;6.488;2023-09-19T04:51:00;13.10;99.90
54192;DHT22;40101;53.002;6.488;2023-09-19T04:53:25;13.10;99.90
54192;DHT22;40101;53.002;6.488;2023-09-19T04:55:53;13.10;99.90
54192;DHT22;40101;53.002;6.488;2023-09-19T04:58:21;13.10;99.90
54192;DHT22;40101;53.002;6.488;2023-09-19T05:00:46;13.10;99.90
54192;DHT22;40101;53.002;6.488;2023-09-19T05:03:12;13.10;99.90
54192;DHT22;40101;53.002;6.488;2023-09-19T05:05:38;13.10;99.90
54192;DHT22;40101;53.002;6.488;2023-09-19T05:08:04;13.00;99.90
54192;DHT22;40101;53.002;6.488;2023-09-19T05:10:32;13.00;99.90
54192;DHT22;40101;53.002;6.488;2023-09-19T05:12:57;13.00;99.90
54192;DHT22;40101;53.002;6.488;2023-09-19T05:15:23;12.90;99.90
54192;DHT22;40101;53.002;6.488;2023-09-19T05:17:49;12.90;99.90
54192;DHT22;40101;53.002;6.488;2023-09-19T05:20:20;12.90;99.90
54192;DHT22;40101;53.002;6.488;2023-09-19T05:23:05;12.90;99.90
54192;DHT22;40101;53.002;6.488;2023-09-19T05:25:39;12.90;99.90
54192;DHT22;40101;53.002;6.488;2023-09-19T05:28:09;12.90;99.90
54192;DHT22;40101;53.002;6.488;2023-09-19T05:30:37;12.90;99.90
54192;DHT22;40101;53.002;6.488;2023-09-19T05:33:06;12.90;99.90
54192;DHT22;40101;53.002;6.488;2023-09-19T05:35:33;12.90;99.90
54192;DHT22;40101;53.002;6.488;2023-09-19T05:37:58;12.90;99.90
54192;DHT22;40101;53.002;6.488;2023-09-19T05:40:25;13.00;99.90
54192;DHT22;40101;53.002;6.488;2023-09-19T05:42:54;13.00;99.90
54192;DHT22;40101;53.002;6.488;2023-09-19T05:45:20;13.00;99.90
54192;DHT22;40101;53.002;6.488;2023-09-19T05:47:54;13.00;99.90
54192;DHT22;40101;53.002;6.488;2023-09-19T05:50:29;13.00;99.90
54192;DHT22;40101;53.002;6.488;2023-09-19T05:52:55;13.00;99.90
54192;DHT22;40101;53.002;6.488;2023-09-19T05:55:23;13.00;99.90
54192;DHT22;40101;53.002;6.488;2023-09-19T05:57:52;13.10;99.90
54192;DHT22;40101;53.002;6.488;2023-09-19T06:00:23;13.00;99.90
54192;DHT22;40101;53.002;6.488;2023-09-19T06:02:52;13.10;99.90
54192;DHT22;40101;53.002;6.488;2023-09-19T06:05:18;13.10;99.90
54192;DHT22;40101;53.002;6.488;2023-09-19T06:07:44;13.10;99.90
54192;DHT22;40101;53.002;6.488;2023-09-19T06:10:10;13.20;99.90
54192;DHT22;40101;53.002;6.488;2023-09-19T06:12:39;13.20;99.90
54192;DHT22;40101;53.002;6.488;2023-09-19T06:15:05;13.20;99.90
54192;DHT22;40101;53.002;6.488;2023-09-19T06:17:31;13.30;99.90
54192;DHT22;40101;53.002;6.488;2023-09-19T06:19:57;13.30;99.90
54192;DHT22;40101;53.002;6.488;2023-09-19T06:22:23;13.30;99.90
54192;DHT22;40101;53.002;6.488;2023-09-19T06:24:49;13.50;99.90
54192;DHT22;40101;53.002;6.488;2023-09-19T06:27:15;13.50;99.90
54192;DHT22;40101;53.002;6.488;2023-09-19T06:29:41;13.70;99.90
54192;DHT22;40101;53.002;6.488;2023-09-19T06:32:08;13.80;99.90
54192;DHT22;40101;53.002;6.488;2023-09-19T06:34:37;13.90;99.90
54192;DHT22;40101;53.002;6.488;2023-09-19T06:37:04;14.00;99.90
54192;DHT22;40101;53.002;6.488;2023-09-19T06:39:31;14.00;99.90
54192;DHT22;40101;53.002;6.488;2023-09-19T06:41:57;14.10;99.90
54192;DHT22;40101;53.002;6.488;2023-09-19T06:44:23;14.10;99.90
54192;DHT22;40101;53.002;6.488;2023-09-19T06:46:50;14.20;99.90
54192;DHT22;40101;53.002;6.488;2023-09-19T06:49:17;14.10;99.90
54192;DHT22;40101;53.002;6.488;2023-09-19T06:51:43;14.20;99.90
54192;DHT22;40101;53.002;6.488;2023-09-19T06:54:12;14.20;99.90
54192;DHT22;40101;53.002;6.488;2023-09-19T06:56:37;14.30;99.90
54192;DHT22;40101;53.002;6.488;2023-09-19T06:59:03;14.40;99.90
54192;DHT22;40101;53.002;6.488;2023-09-19T07:01:31;14.50;99.90
54192;DHT22;40101;53.002;6.488;2023-09-19T07:03:57;14.50;99.90
54192;DHT22;40101;53.002;6.488;2023-09-19T07:06:23;14.50;99.90
54192;DHT22;40101;53.002;6.488;2023-09-19T07:08:49;14.60;99.90
54192;DHT22;40101;53.002;6.488;2023-09-19T07:11:15;14.60;99.90
54192;DHT22;40101;53.002;6.488;2023-09-19T07:13:41;14.80;99.90
54192;DHT22;40101;53.002;6.488;2023-09-19T07:16:07;15.10;99.90
54192;DHT22;40101;53.002;6.488;2023-09-19T07:18:35;15.10;99.90
54192;DHT22;40101;53.002;6.488;2023-09-19T07:21:02;15.20;99.90
54192;DHT22;40101;53.002;6.488;2023-09-19T07:23:30;15.40;99.90
54192;DHT22;40101;53.002;6.488;2023-09-19T07:26:01;15.50;99.90
54192;DHT22;40101;53.002;6.488;2023-09-19T07:28:27;15.40;99.90
54192;DHT22;40101;53.002;6.488;2023-09-19T07:30:53;15.30;99.90
54192;DHT22;40101;53.002;6.488;2023-09-19T07:33:19;15.20;99.90
54192;DHT22;40101;53.002;6.488;2023-09-19T07:35:46;15.10;99.90
54192;DHT22;40101;53.002;6.488;2023-09-19T07:38:13;15.20;99.90
54192;DHT22;40101;53.002;6.488;2023-09-19T07:40:39;15.80;99.90
54192;DHT22;40101;53.002;6.488;2023-09-19T07:43:05;16.20;99.90
54192;DHT22;40101;53.002;6.488;2023-09-19T07:45:32;16.40;99.90
54192;DHT22;40101;53.002;6.488;2023-09-19T07:47:58;16.30;99.90
54192;DHT22;40101;53.002;6.488;2023-09-19T07:50:25;16.50;99.90
54192;DHT22;40101;53.002;6.488;2023-09-19T07:52:52;17.20;99.90
54192;DHT22;40101;53.002;6.488;2023-09-19T07:55:18;17.90;99.90
54192;DHT22;40101;53.002;6.488;2023-09-19T07:57:45;18.60;99.90
54192;DHT22;40101;53.002;6.488;2023-09-19T08:00:12;18.70;99.90
54192;DHT22;40101;53.002;6.488;2023-09-19T08:02:42;18.30;99.90
54192;DHT22;40101;53.002;6.488;2023-09-19T08:05:09;17.70;99.90
54192;DHT22;40101;53.002;6.488;2023-09-19T08:07:36;17.10;99.90
54192;DHT22;40101;53.002;6.488;2023-09-19T08:10:06;16.70;99.90
54192;DHT22;40101;53.002;6.488;2023-09-19T08:12:43;16.70;99.90
54192;DHT22;40101;53.002;6.488;2023-09-19T08:15:16;17.30;99.90
54192;DHT22;40101;53.002;6.488;2023-09-19T08:17:42;17.70;99.90
54192;DHT22;40101;53.002;6.488;2023-09-19T08:20:09;18.10;99.90
54192;DHT22;40101;53.002;6.488;2023-09-19T08:22:42;18.50;99.90
54192;DHT22;40101;53.002;6.488;2023-09-19T08:25:09;18.90;99.90
54192;DHT22;40101;53.002;6.488;2023-09-19T08:27:35;19.10;99.90
54192;DHT22;40101;53.002;6.488;2023-09-19T08:30:01;19.30;99.90
54192;DHT22;40101;53.002;6.488;2023-09-19T08:32:29;19.40;99.90
54192;DHT22;40101;53.002;6.488;2023-09-19T08:34:54;19.60;99.90
54192;DHT22;40101;53.002;6.488;2023-09-19T08:37:20;19.70;99.90
54192;DHT22;40101;53.002;6.488;2023-09-19T08:39:46;19.70;99.90
54192;DHT22;40101;53.002;6.488;2023-09-19T08:42:12;19.70;99.90
54192;DHT22;40101;53.002;6.488;2023-09-19T08:44:38;19.60;99.90
54192;DHT22;40101;53.002;6.488;2023-09-19T08:47:10;19.60;99.90
54192;DHT22;40101;53.002;6.488;2023-09-19T08:52:46;19.80;99.90
54192;DHT22;40101;53.002;6.488;2023-09-19T08:55:14;19.90;99.90
54192;DHT22;40101;53.002;6.488;2023-09-19T08:57:46;20.00;99.90
54192;DHT22;40101;53.002;6.488;2023-09-19T09:00:15;20.30;99.90
54192;DHT22;40101;53.002;6.488;2023-09-19T09:02:44;20.20;99.90
54192;DHT22;40101;53.002;6.488;2023-09-19T09:05:10;20.10;99.90
54192;DHT22;40101;53.002;6.488;2023-09-19T09:07:37;20.10;99.90
54192;DHT22;40101;53.002;6.488;2023-09-19T09:10:04;20.00;99.90
54192;DHT22;40101;53.002;6.488;2023-09-19T09:12:30;19.80;99.90
54192;DHT22;40101;53.002;6.488;2023-09-19T09:14:56;19.60;99.90
54192;DHT22;40101;53.002;6.488;2023-09-19T09:17:23;19.50;99.90
54192;DHT22;40101;53.002;6.488;2023-09-19T09:19:52;19.60;99.90
54192;DHT22;40101;53.002;6.488;2023-09-19T09:22:18;19.90;99.90
54192;DHT22;40101;53.002;6.488;2023-09-19T09:24:57;20.00;99.90
54192;DHT22;40101;53.002;6.488;2023-09-19T09:27:30;19.90;99.90
54192;DHT22;40101;53.002;6.488;2023-09-19T09:29:58;19.90;99.90
54192;DHT22;40101;53.002;6.488;2023-09-19T09:32:30;20.00;99.90
54192;DHT22;40101;53.002;6.488;2023-09-19T09:35:00;19.90;99.90
54192;DHT22;40101;53.002;6.488;2023-09-19T09:37:27;20.10;99.90
54192;DHT22;40101;53.002;6.488;2023-09-19T09:40:03;20.10;99.90
54192;DHT22;40101;53.002;6.488;2023-09-19T09:42:40;20.30;99.90
54192;DHT22;40101;53.002;6.488;2023-09-19T09:47:51;20.20;99.90
54192;DHT22;40101;53.002;6.488;2023-09-19T09:50:34;20.20;99.90
54192;DHT22;40101;53.002;6.488;2023-09-19T09:53:26;20.50;99.90
54192;DHT22;40101;53.002;6.488;2023-09-19T09:56:04;20.70;99.90
54192;DHT22;40101;53.002;6.488;2023-09-19T10:01:14;20.60;99.90
54192;DHT22;40101;53.002;6.488;2023-09-19T10:03:42;20.60;99.90
54192;DHT22;40101;53.002;6.488;2023-09-19T10:06:14;20.70;99.90
54192;DHT22;40101;53.002;6.488;2023-09-19T10:11:31;20.80;99.90
54192;DHT22;40101;53.002;6.488;2023-09-19T10:13:58;20.80;99.90
54192;DHT22;40101;53.002;6.488;2023-09-19T10:16:30;21.00;99.90
54192;DHT22;40101;53.002;6.488;2023-09-19T10:18:59;21.20;99.90
54192;DHT22;40101;53.002;6.488;2023-09-19T10:21:28;21.40;99.90
54192;DHT22;40101;53.002;6.488;2023-09-19T10:23:58;21.50;99.90
54192;DHT22;40101;53.002;6.488;2023-09-19T10:26:26;21.40;99.90
54192;DHT22;40101;53.002;6.488;2023-09-19T10:28:57;21.10;99.90
54192;DHT22;40101;53.002;6.488;2023-09-19T10:31:26;20.60;99.90
54192;DHT22;40101;53.002;6.488;2023-09-19T10:33:53;20.10;99.90
54192;DHT22;40101;53.002;6.488;2023-09-19T10:36:24;19.80;99.90
54192;DHT22;40101;53.002;6.488;2023-09-19T10:38:54;19.60;99.90
54192;DHT22;40101;53.002;6.488;2023-09-19T10:41:22;19.60;99.90
54192;DHT22;40101;53.002;6.488;2023-09-19T10:43:48;19.60;99.90
54192;DHT22;40101;53.002;6.488;2023-09-19T10:46:16;19.30;99.90
54192;DHT22;40101;53.002;6.488;2023-09-19T10:48:42;19.30;99.90
54192;DHT22;40101;53.002;6.488;2023-09-19T10:51:12;19.30;99.90
54192;DHT22;40101;53.002;6.488;2023-09-19T10:53:52;19.30;99.90
54192;DHT22;40101;53.002;6.488;2023-09-19T11:07:04;19.30;99.90
54192;DHT22;40101;53.002;6.488;2023-09-19T11:09:52;19.30;99.90
54192;DHT22;40101;53.002;6.488;2023-09-19T11:14:55;19.30;99.90
54192;DHT22;40101;53.002;6.488;2023-09-19T11:30:35;18.80;99.90
54192;DHT22;40101;53.002;6.488;2023-09-19T11:46:32;19.20;99.90
54192;DHT22;40101;53.002;6.488;2023-09-19T11:49:09;19.30;99.90
54192;DHT22;40101;53.002;6.488;2023-09-19T11:51:43;19.30;99.90
54192;DHT22;40101;53.002;6.488;2023-09-19T11:54:13;19.20;99.90
54192;DHT22;40101;53.002;6.488;2023-09-19T11:56:46;19.10;99.90
54192;DHT22;40101;53.002;6.488;2023-09-19T11:59:20;19.10;99.90
54192;DHT22;40101;53.002;6.488;2023-09-19T12:01:51;19.00;99.90
54192;DHT22;40101;53.002;6.488;2023-09-19T12:04:34;18.90;99.90
54192;DHT22;40101;53.002;6.488;2023-09-19T12:07:07;18.80;99.90
54192;DHT22;40101;53.002;6.488;2023-09-19T12:09:39;18.70;99.90
54192;DHT22;40101;53.002;6.488;2023-09-19T12:12:06;18.80;99.90
54192;DHT22;40101;53.002;6.488;2023-09-19T12:14:32;18.70;99.90
54192;DHT22;40101;53.002;6.488;2023-09-19T12:16:58;18.60;99.90
54192;DHT22;40101;53.002;6.488;2023-09-19T12:19:26;18.50;99.90
54192;DHT22;40101;53.002;6.488;2023-09-19T12:21:57;18.40;99.90
54192;DHT22;40101;53.002;6.488;2023-09-19T12:24:30;18.40;99.90
54192;DHT22;40101;53.002;6.488;2023-09-19T12:27:03;18.30;99.90
54192;DHT22;40101;53.002;6.488;2023-09-19T12:29:42;18.30;99.90
54192;DHT22;40101;53.002;6.488;2023-09-19T12:32:09;18.30;99.90
54192;DHT22;40101;53.002;6.488;2023-09-19T12:34:35;18.10;99.90
54192;DHT22;40101;53.002;6.488;2023-09-19T12:37:07;18.30;99.90
54192;DHT22;40101;53.002;6.488;2023-09-19T12:39:43;18.50;99.90
54192;DHT22;40101;53.002;6.488;2023-09-19T12:42:14;18.70;99.90
54192;DHT22;40101;53.002;6.488;2023-09-19T12:44:48;18.80;99.90
54192;DHT22;40101;53.002;6.488;2023-09-19T12:47:18;18.90;99.90
54192;DHT22;40101;53.002;6.488;2023-09-19T12:50:12;19.00;99.90
54192;DHT22;40101;53.002;6.488;2023-09-19T12:52:47;19.00;99.90
54192;DHT22;40101;53.002;6.488;2023-09-19T12:55:29;18.90;99.90
54192;DHT22;40101;53.002;6.488;2023-09-19T12:58:13;18.70;99.90
54192;DHT22;40101;53.002;6.488;2023-09-19T13:00:45;18.60;99.90
54192;DHT22;40101;53.002;6.488;2023-09-19T13:06:13;18.40;99.90
54192;DHT22;40101;53.002;6.488;2023-09-19T13:08:42;18.40;99.90
54192;DHT22;40101;53.002;6.488;2023-09-19T13:13:40;18.50;99.90
54192;DHT22;40101;53.002;6.488;2023-09-19T13:16:06;18.50;99.90
54192;DHT22;40101;53.002;6.488;2023-09-19T13:18:47;18.50;99.90
54192;DHT22;40101;53.002;6.488;2023-09-19T13:21:16;18.40;99.90
54192;DHT22;40101;53.002;6.488;2023-09-19T13:23:53;18.40;99.90
54192;DHT22;40101;53.002;6.488;2023-09-19T13:26:22;18.40;99.90
54192;DHT22;40101;53.002;6.488;2023-09-19T13:28:48;18.30;99.90
54192;DHT22;40101;53.002;6.488;2023-09-19T13:31:15;18.30;99.90
54192;DHT22;40101;53.002;6.488;2023-09-19T13:33:48;18.20;99.90
54192;DHT22;40101;53.002;6.488;2023-09-19T13:36:14;18.20;99.90
54192;DHT22;40101;53.002;6.488;2023-09-19T13:38:41;18.20;99.90
54192;DHT22;40101;53.002;6.488;2023-09-19T13:41:12;18.20;99.90
54192;DHT22;40101;53.002;6.488;2023-09-19T13:43:38;18.10;99.90
54192;DHT22;40101;53.002;6.488;2023-09-19T13:46:04;18.10;99.90
54192;DHT22;40101;53.002;6.488;2023-09-19T13:48:30;18.00;99.90
54192;DHT22;40101;53.002;6.488;2023-09-19T13:50:56;18.00;99.90
54192;DHT22;40101;53.002;6.488;2023-09-19T13:53:23;17.80;99.90
54192;DHT22;40101;53.002;6.488;2023-09-19T13:55:48;17.70;99.90
54192;DHT22;40101;53.002;6.488;2023-09-19T13:58:14;17.70;99.90
54192;DHT22;40101;53.002;6.488;2023-09-19T14:00:40;17.90;99.90
54192;DHT22;40101;53.002;6.488;2023-09-19T14:03:06;18.10;99.90
54192;DHT22;40101;53.002;6.488;2023-09-19T14:05:32;18.20;99.90
54192;DHT22;40101;53.002;6.488;2023-09-19T14:07:58;18.30;99.90
54192;DHT22;40101;53.002;6.488;2023-09-19T14:10:25;18.30;99.90
54192;DHT22;40101;53.002;6.488;2023-09-19T14:12:53;18.40;99.90
54192;DHT22;40101;53.002;6.488;2023-09-19T14:15:18;18.40;99.90
54192;DHT22;40101;53.002;6.488;2023-09-19T14:17:44;18.30;99.90
54192;DHT22;40101;53.002;6.488;2023-09-19T14:20:12;18.30;99.90
54192;DHT22;40101;53.002;6.488;2023-09-19T14:22:38;18.30;99.90
54192;DHT22;40101;53.002;6.488;2023-09-19T14:25:04;18.30;99.90
54192;DHT22;40101;53.002;6.488;2023-09-19T14:27:30;18.40;99.90
54192;DHT22;40101;53.002;6.488;2023-09-19T14:29:56;18.50;99.90
54192;DHT22;40101;53.002;6.488;2023-09-19T14:32:23;18.60;99.90
54192;DHT22;40101;53.002;6.488;2023-09-19T14:34:49;18.60;99.90
54192;DHT22;40101;53.002;6.488;2023-09-19T14:37:14;18.50;99.90
54192;DHT22;40101;53.002;6.488;2023-09-19T14:39:42;18.50;99.90
54192;DHT22;40101;53.002;6.488;2023-09-19T14:42:10;18.40;99.90
54192;DHT22;40101;53.002;6.488;2023-09-19T14:44:36;18.40;99.90
54192;DHT22;40101;53.002;6.488;2023-09-19T14:47:03;18.40;99.90
54192;DHT22;40101;53.002;6.488;2023-09-19T14:49:36;18.40;99.90
54192;DHT22;40101;53.002;6.488;2023-09-19T14:52:09;18.40;99.90
54192;DHT22;40101;53.002;6.488;2023-09-19T14:54:36;18.30;99.90
54192;DHT22;40101;53.002;6.488;2023-09-19T14:57:04;18.30;99.90
54192;DHT22;40101;53.002;6.488;2023-09-19T14:59:33;18.30;99.90
54192;DHT22;40101;53.002;6.488;2023-09-19T15:02:07;18.40;99.90
54192;DHT22;40101;53.002;6.488;2023-09-19T15:04:33;18.30;99.90
54192;DHT22;40101;53.002;6.488;2023-09-19T15:06:59;18.30;99.90
54192;DHT22;40101;53.002;6.488;2023-09-19T15:09:25;18.30;99.90
54192;DHT22;40101;53.002;6.488;2023-09-19T15:11:54;18.20;99.90
54192;DHT22;40101;53.002;6.488;2023-09-19T15:14:20;18.10;99.90
54192;DHT22;40101;53.002;6.488;2023-09-19T15:16:46;18.10;99.90
54192;DHT22;40101;53.002;6.488;2023-09-19T15:19:13;18.00;99.90
54192;DHT22;40101;53.002;6.488;2023-09-19T15:21:39;17.80;99.90
54192;DHT22;40101;53.002;6.488;2023-09-19T15:24:06;17.70;99.90
54192;DHT22;40101;53.002;6.488;2023-09-19T15:26:36;17.50;99.90
54192;DHT22;40101;53.002;6.488;2023-09-19T15:29:07;17.40;99.90
54192;DHT22;40101;53.002;6.488;2023-09-19T15:31:35;17.40;99.90
54192;DHT22;40101;53.002;6.488;2023-09-19T15:34:06;17.40;99.90
54192;DHT22;40101;53.002;6.488;2023-09-19T15:36:33;17.40;99.90
54192;DHT22;40101;53.002;6.488;2023-09-19T15:41:39;17.40;99.90
54192;DHT22;40101;53.002;6.488;2023-09-19T15:44:14;17.40;99.90
54192;DHT22;40101;53.002;6.488;2023-09-19T15:46:40;17.30;99.90
54192;DHT22;40101;53.002;6.488;2023-09-19T15:49:06;17.20;99.90
54192;DHT22;40101;53.002;6.488;2023-09-19T15:51:33;17.20;99.90
54192;DHT22;40101;53.002;6.488;2023-09-19T15:54:01;17.10;99.90
54192;DHT22;40101;53.002;6.488;2023-09-19T15:56:33;17.10;99.90
54192;DHT22;40101;53.002;6.488;2023-09-19T15:59:00;17.10;99.90
54192;DHT22;40101;53.002;6.488;2023-09-19T16:01:26;17.00;99.90
54192;DHT22;40101;53.002;6.488;2023-09-19T16:03:53;17.10;99.90
54192;DHT22;40101;53.002;6.488;2023-09-19T16:06:22;17.10;99.90
54192;DHT22;40101;53.002;6.488;2023-09-19T16:08:53;17.10;99.90
54192;DHT22;40101;53.002;6.488;2023-09-19T16:11:19;17.10;99.90
54192;DHT22;40101;53.002;6.488;2023-09-19T16:13:47;17.00;99.90
54192;DHT22;40101;53.002;6.488;2023-09-19T16:16:13;16.90;99.90
54192;DHT22;40101;53.002;6.488;2023-09-19T16:18:55;16.80;99.90
54192;DHT22;40101;53.002;6.488;2023-09-19T16:21:23;16.70;99.90
54192;DHT22;40101;53.002;6.488;2023-09-19T16:23:51;16.60;99.90
54192;DHT22;40101;53.002;6.488;2023-09-19T16:26:19;16.50;99.90
54192;DHT22;40101;53.002;6.488;2023-09-19T16:28:46;16.50;99.90
54192;DHT22;40101;53.002;6.488;2023-09-19T16:31:13;16.50;99.90
54192;DHT22;40101;53.002;6.488;2023-09-19T16:33:40;16.40;99.90
54192;DHT22;40101;53.002;6.488;2023-09-19T16:36:17;16.40;99.90
54192;DHT22;40101;53.002;6.488;2023-09-19T16:38:44;16.30;99.90
54192;DHT22;40101;53.002;6.488;2023-09-19T16:41:10;16.30;99.90
54192;DHT22;40101;53.002;6.488;2023-09-19T16:43:37;16.20;99.90
54192;DHT22;40101;53.002;6.488;2023-09-19T16:46:05;16.20;99.90
54192;DHT22;40101;53.002;6.488;2023-09-19T16:48:35;16.20;99.90
54192;DHT22;40101;53.002;6.488;2023-09-19T16:51:05;16.20;99.90
54192;DHT22;40101;53.002;6.488;2023-09-19T16:53:32;16.10;99.90
54192;DHT22;40101;53.002;6.488;2023-09-19T16:56:09;16.30;99.90